Welcome to Northern Hawkes Bay. New Zealand.
PWS Header
      nz Flag



Hit Counter


W3C Valid W3C Valid logo


    Wairoa

Select any of the Stations below to visit their websites.










Historic Data from Weather Underground
Select the location of interest below. Wairoa is the default. Please have patience, this Data is slow to load in.
Northern Hawkes Bay Historical Data
Daily Summary for May 21, 2017 Units:  English    Metric   Both
« Previous Day
Next Day »
Daily Weekly Monthly Yearly Custom
  High: Low: Average:
Temperature: 54.3 °F 40.5 °F 48.4 °F
Dew Point: 40.1 °F 27.7 °F 35.4 °F
Humidity: 75% 52% 61%
Wind Speed: 26.6mph 1.6mph 12mph
Wind Gust: 37.4mph - -
Wind- - WSW
Pressure: 30.4 in 30 in -
Precipitation: 0 in    
Historical Graphs
 
 
Tabular Data for May 21, 2017
Time Temperature Dew Point Pressure Wind Wind Speed Wind Gust Humidity Rainfall Rate (Hourly) solar
00:04 42.4 °F 28.8 °F 30 in WNW 2.2 mph 9.2 mph 58% 0 in 0 W/m2
00:09 42.6 °F 28.6 °F 30 in WNW 4.5 mph 8.3 mph 57% 0 in 0 W/m2
00:14 42.4 °F 28.2 °F 30 in NW 1.6 mph 8.3 mph 57% 0 in 0 W/m2
00:19 42.1 °F 28 °F 30 in NW 3.8 mph 6 mph 57% 0 in 0 W/m2
00:24 41.7 °F 28.6 °F 30 in NW 3.1 mph 6 mph 59% 0 in 0 W/m2
00:29 41.4 °F 28.6 °F 30 in NW 3.1 mph 6.9 mph 60% 0 in 0 W/m2
00:34 41.2 °F 28.8 °F 30 in NW 4.5 mph 6.9 mph 61% 0 in 0 W/m2
00:39 41 °F 28.9 °F 30 in NW 3.1 mph 6.9 mph 62% 0 in 0 W/m2
00:44 41 °F 28.9 °F 30 in NW 3.1 mph 6.9 mph 62% 0 in 0 W/m2
00:49 41 °F 29.5 °F 30 in NW 3.8 mph 6.9 mph 63% 0 in 0 W/m2
00:54 40.8 °F 29.7 °F 30 in NW 2.2 mph 6.9 mph 64% 0 in 0 W/m2
00:59 41 °F 29.5 °F 30 in NW 3.1 mph 6.9 mph 63% 0 in 0 W/m2
01:04 41.4 °F 28.9 °F 30 in WNW 3.8 mph 6.9 mph 61% 0 in 0 W/m2
01:09 42.6 °F 28.6 °F 30 in WNW 3.1 mph 9.8 mph 57% 0 in 0 W/m2
01:14 43.3 °F 27.9 °F 30 in WNW 3.1 mph 9.8 mph 54% 0 in 0 W/m2
01:19 43.5 °F 28 °F 30 in WNW 2.2 mph 9.8 mph 54% 0 in 0 W/m2
01:24 43.5 °F 28 °F 30 in WNW 3.1 mph 9.8 mph 54% 0 in 0 W/m2
01:30 43.2 °F 27.7 °F 30 in WNW 4.5 mph 6.9 mph 54% 0 in 0 W/m2
01:35 43 °F 27.9 °F 30 in WNW 3.8 mph 6.9 mph 55% 0 in 0 W/m2
01:40 43 °F 27.9 °F 30 in WNW 3.1 mph 6.9 mph 55% 0 in 0 W/m2
01:46 42.8 °F 27.9 °F 30 in WNW 5.4 mph 6.9 mph 55% 0 in 0 W/m2
01:51 42.8 °F 27.9 °F 30 in NW 4.5 mph 8.3 mph 55% 0 in 0 W/m2
01:56 42.8 °F 27.9 °F 30 in NW 3.8 mph 8.3 mph 55% 0 in 0 W/m2
02:01 42.8 °F 28.2 °F 30 in NW 3.1 mph 7.6 mph 56% 0 in 0 W/m2
02:11 42.6 °F 28.6 °F 30 in WNW 3.1 mph 7.6 mph 57% 0 in 0 W/m2
02:16 42.6 °F 28.9 °F 30 in WNW 4.5 mph 7.6 mph 58% 0 in 0 W/m2
02:21 42.6 °F 28.6 °F 30 in NW 5.4 mph 8.3 mph 57% 0 in 0 W/m2
02:26 42.8 °F 28.2 °F 30 in NW 4.5 mph 9.8 mph 56% 0 in 0 W/m2
02:31 42.8 °F 28.2 °F 30 in WNW 5.4 mph 9.8 mph 56% 0 in 0 W/m2
02:36 43.2 °F 28.6 °F 30 in WNW 5.4 mph 9.8 mph 56% 0 in 0 W/m2
02:41 43.2 °F 28.6 °F 30 in WNW 3.8 mph 7.6 mph 56% 0 in 0 W/m2
02:46 42.8 °F 28.6 °F 30 in WNW 6 mph 9.2 mph 57% 0 in 0 W/m2
02:51 42.4 °F 29.1 °F 30 in WNW 3.1 mph 9.2 mph 59% 0 in 0 W/m2
02:56 42.3 °F 28.9 °F 30 in WNW 3.1 mph 9.2 mph 59% 0 in 0 W/m2
03:01 41.9 °F 29.5 °F 30 in NW 3.1 mph 6 mph 61% 0 in 0 W/m2
03:06 41.4 °F 29.7 °F 30 in NW 3.1 mph 6 mph 63% 0 in 0 W/m2
03:11 40.8 °F 30 °F 30 in NW 3.8 mph 6 mph 65% 0 in 0 W/m2
03:16 40.6 °F 29.8 °F 30 in NW 2.2 mph 6 mph 65% 0 in 0 W/m2
03:21 40.5 °F 29.7 °F 30 in NW 3.1 mph 6 mph 65% 0 in 0 W/m2
03:26 40.5 °F 30 °F 30 in NW 3.1 mph 5.4 mph 66% 0 in 0 W/m2
03:31 40.6 °F 30.2 °F 30 in NW 3.1 mph 7.6 mph 66% 0 in 0 W/m2
03:36 40.6 °F 30.2 °F 30 in NW 3.1 mph 7.6 mph 66% 0 in 0 W/m2
03:41 40.8 °F 30.4 °F 30 in NW 3.1 mph 4.5 mph 66% 0 in 0 W/m2
03:46 40.8 °F 30.4 °F 30 in NW 4.5 mph 6 mph 66% 0 in 0 W/m2
03:51 41 °F 30.2 °F 30 in NW 3.1 mph 6 mph 65% 0 in 0 W/m2
03:56 41 °F 29.8 °F 30 in WNW 4.5 mph 6 mph 64% 0 in 0 W/m2
04:01 41.7 °F 30 °F 30 in WNW 4.5 mph 7.6 mph 63% 0 in 0 W/m2
04:06 41.9 °F 30.2 °F 30 in WNW 3.1 mph 7.6 mph 63% 0 in 0 W/m2
04:11 42.1 °F 30.4 °F 30 in WNW 3.1 mph 6.9 mph 63% 0 in 0 W/m2
04:16 41.9 °F 30.2 °F 30 in West 3.1 mph 6.9 mph 63% 0 in 0 W/m2
04:21 42.1 °F 30 °F 30 in WNW 3.1 mph 6.9 mph 62% 0 in 0 W/m2
04:26 42.1 °F 30 °F 30 in WNW 3.8 mph 9.2 mph 62% 0 in 0 W/m2
04:31 42.3 °F 30.2 °F 30 in WNW 3.8 mph 9.2 mph 62% 0 in 0 W/m2
04:36 42.3 °F 30.2 °F 30 in WNW 3.8 mph 6.9 mph 62% 0 in 0 W/m2
04:41 42.3 °F 30.2 °F 30 in NW 5.4 mph 6.9 mph 62% 0 in 0 W/m2
04:46 42.6 °F 30 °F 30 in WNW 3.1 mph 6.9 mph 61% 0 in 0 W/m2
04:51 42.6 °F 30 °F 30 in West 2.2 mph 6.9 mph 61% 0 in 0 W/m2
04:56 43 °F 29.7 °F 30 in West 6.9 mph 11.4 mph 59% 0 in 0 W/m2
05:01 43.9 °F 29.7 °F 30 in WSW 6.9 mph 11.4 mph 57% 0 in 0 W/m2
05:06 44.8 °F 29.7 °F 30.1 in SW 12.1 mph 16.8 mph 55% 0 in 0 W/m2
05:11 46 °F 30.7 °F 30.1 in WSW 9.8 mph 24.4 mph 55% 0 in 0 W/m2
05:16 46.8 °F 31.5 °F 30.1 in WSW 7.6 mph 25.1 mph 55% 0 in 0 W/m2
05:18 46.8 °F 31.5 °F 30.1 in WSW 13.6 mph 25.1 mph 55% 0 in 0 W/m2
05:23 47.1 °F 31.8 °F 30.1 in SW 15.2 mph 28.2 mph 55% 0 in 0 W/m2
05:28 47.7 °F 32.4 °F 30.1 in SW 14.5 mph 28.2 mph 55% 0 in 0 W/m2
05:33 47.7 °F 31.8 °F 30.1 in SW 15.2 mph 31.1 mph 54% 0 in 0 W/m2
05:38 47.7 °F 31.8 °F 30.1 in SW 15.2 mph 31.1 mph 54% 0 in 0 W/m2
05:43 47.7 °F 32.4 °F 30.1 in SW 19.7 mph 31.1 mph 55% 0 in 0 W/m2
05:48 47.5 °F 32.2 °F 30.1 in SW 13 mph 31.1 mph 55% 0 in 0 W/m2
05:53 47.5 °F 32.5 °F 30.1 in SW 10.7 mph 29.8 mph 56% 0 in 0 W/m2
05:58 47.3 °F 32.7 °F 30.1 in SW 15.9 mph 29.8 mph 57% 0 in 0 W/m2
06:03 47.1 °F 32.2 °F 30.1 in WSW 16.8 mph 34.2 mph 56% 0 in 0 W/m2
06:08 47.1 °F 32.2 °F 30.1 in WSW 15.2 mph 34.2 mph 56% 0 in 0 W/m2
06:13 47.1 °F 32.7 °F 30.1 in SW 19 mph 28.2 mph 57% 0 in 0 W/m2
06:18 46.8 °F 31.8 °F 30.1 in WSW 14.5 mph 28.2 mph 56% 0 in 0 W/m2
06:23 46.6 °F 31.6 °F 30.1 in West 15.9 mph 28.9 mph 56% 0 in 0 W/m2
06:28 46.6 °F 32.2 °F 30.1 in WSW 17.4 mph 28.9 mph 57% 0 in 0 W/m2
06:33 46.6 °F 32.2 °F 30.1 in WSW 15.9 mph 27.3 mph 57% 0 in 0 W/m2
06:38 46.8 °F 32.4 °F 30.1 in SW 15.2 mph 28.2 mph 57% 0 in 0 W/m2
06:43 46.9 °F 32.5 °F 30.1 in WSW 20.6 mph 30.4 mph 57% 0 in 0 W/m2
06:48 46.8 °F 33.3 °F 30.1 in WSW 14.5 mph 30.4 mph 59% 0 in 0 W/m2
06:53 46.9 °F 33.8 °F 30.1 in WSW 19.7 mph 31.1 mph 60% 0 in 0 W/m2
06:58 46.8 °F 33.3 °F 30.1 in WSW 15.2 mph 31.1 mph 59% 0 in 0 W/m2
07:03 46.9 °F 34.5 °F 30.1 in West 15.9 mph 36.5 mph 62% 0 in 0 W/m2
07:08 47.1 °F 34.9 °F 30.1 in West 13.6 mph 36.5 mph 62% 0 in 1 W/m2
07:13 47.3 °F 34.2 °F 30.1 in WSW 21.3 mph 34.2 mph 60% 0 in 3 W/m2
07:18 47.5 °F 34 °F 30.1 in West 12.1 mph 34.9 mph 59% 0 in 6 W/m2
07:23 47.5 °F 34.7 °F 30.1 in WSW 15.2 mph 34.9 mph 61% 0 in 8 W/m2
07:28 47.7 °F 35.8 °F 30.1 in SW 19.7 mph 32.7 mph 63% 0 in 13 W/m2
07:33 47.8 °F 36 °F 30.1 in WSW 13.6 mph 31.1 mph 63% 0 in 15 W/m2
07:35 47.8 °F 36.3 °F 30.1 in WSW 17.4 mph 31.1 mph 64% 0 in 20 W/m2
07:40 47.7 °F 36.1 °F 30.1 in WSW 22.1 mph 31.1 mph 64% 0 in 16 W/m2
07:45 47.5 °F 36 °F 30.1 in WSW 14.5 mph 30.4 mph 64% 0 in 16 W/m2
07:50 47.1 °F 35.6 °F 30.1 in WSW 18.3 mph 30.4 mph 64% 0 in 24 W/m2
07:56 47.3 °F 36.1 °F 30.1 in WSW 19 mph 28.2 mph 65% 0 in 30 W/m2
08:01 47.5 °F 36.3 °F 30.1 in WSW 19 mph 27.3 mph 65% 0 in 45 W/m2
08:06 47.7 °F 36.5 °F 30.1 in WSW 22.8 mph 32 mph 65% 0 in 31 W/m2
08:11 47.7 °F 36.5 °F 30.1 in WSW 17.4 mph 32.7 mph 65% 0 in 120 W/m2
08:16 48.2 °F 36.7 °F 30.1 in SW 15.2 mph 32.7 mph 64% 0 in 45 W/m2
08:21 48.2 °F 35.4 °F 30.1 in SW 20.6 mph 32 mph 61% 0 in 87 W/m2
08:26 48.6 °F 36.5 °F 30.1 in WSW 19 mph 33.6 mph 63% 0 in 182 W/m2
08:31 48.7 °F 36.3 °F 30.1 in WSW 19.7 mph 34.9 mph 62% 0 in 182 W/m2
08:36 48.6 °F 35.8 °F 30.1 in WSW 19.7 mph 34.9 mph 61% 0 in 56 W/m2
08:41 48.7 °F 36 °F 30.1 in SW 19 mph 28.9 mph 61% 0 in 156 W/m2
08:46 49.3 °F 36.3 °F 30.1 in SW 23.5 mph 32 mph 61% 0 in 206 W/m2
08:56 49.3 °F 36 °F 30.2 in SW 19.7 mph 33.6 mph 60% 0 in 88 W/m2
09:01 49.5 °F 36.1 °F 30.2 in SW 19.7 mph 34.9 mph 60% 0 in 226 W/m2
09:06 50 °F 36.7 °F 30.2 in SW 15.9 mph 34.9 mph 60% 0 in 256 W/m2
09:11 50.2 °F 36.9 °F 30.2 in SW 18.3 mph 30.4 mph 60% 0 in 232 W/m2
09:16 50.2 °F 36.3 °F 30.2 in SW 18.3 mph 28.9 mph 59% 0 in 277 W/m2
09:21 50.2 °F 36.3 °F 30.2 in SW 22.1 mph 32.7 mph 59% 0 in 260 W/m2
09:22 50 °F 36.7 °F 30.2 in SW 15.2 mph 32.7 mph 60% 0 in 82 W/m2
09:27 50.2 °F 37.8 °F 30.2 in WSW 15.9 mph 32.7 mph 62% 0 in 172 W/m2
09:32 50.4 °F 37 °F 30.2 in SW 22.8 mph 32.7 mph 60% 0 in 73 W/m2
09:37 50.4 °F 36.7 °F 30.2 in SW 17.4 mph 32.7 mph 59% 0 in 89 W/m2
09:42 50.5 °F 37.6 °F 30.2 in SW 15.2 mph 31.1 mph 61% 0 in 80 W/m2
09:47 50.5 °F 36 °F 30.2 in WSW 20.6 mph 34.2 mph 57% 0 in 88 W/m2
09:52 50.7 °F 36.9 °F 30.2 in SW 26.6 mph 34.2 mph 59% 0 in 66 W/m2
09:57 50.2 °F 36 °F 30.2 in WSW 23.5 mph 32 mph 58% 0 in 82 W/m2
10:02 50.7 °F 36.5 °F 30.2 in WSW 17.4 mph 34.2 mph 58% 0 in 113 W/m2
10:07 50.5 °F 36 °F 30.2 in WSW 23.5 mph 34.2 mph 57% 0 in 87 W/m2
10:12 50.5 °F 36.9 °F 30.2 in WSW 16.8 mph 32.7 mph 59% 0 in 87 W/m2
10:17 50.9 °F 37 °F 30.2 in WSW 17.4 mph 32.7 mph 59% 0 in 94 W/m2
10:22 50.7 °F 37.4 °F 30.2 in SW 18.3 mph 37.4 mph 60% 0 in 77 W/m2
10:27 51.3 °F 37.9 °F 30.2 in SW 21.3 mph 37.4 mph 60% 0 in 95 W/m2
10:47 50.7 °F 38.7 °F 30.2 in WSW 15.2 mph 31.1 mph 63% 0 in 111 W/m2
10:52 50.9 °F 38.5 °F 30.2 in SW 19 mph 30.4 mph 62% 0 in 212 W/m2
11:02 51.4 °F 38.5 °F 30.2 in WSW 19.7 mph 32 mph 61% 0 in 296 W/m2
11:07 51.4 °F 38.8 °F 30.2 in WSW 15.2 mph 29.8 mph 62% 0 in 281 W/m2
11:12 51.6 °F 39 °F 30.2 in SW 17.4 mph 25.9 mph 62% 0 in 259 W/m2
11:17 51.6 °F 38.7 °F 30.2 in SW 16.8 mph 30.4 mph 61% 0 in 146 W/m2
11:22 52 °F 39.4 °F 30.2 in SW 17.4 mph 30.4 mph 62% 0 in 221 W/m2
11:27 51.8 °F 38.8 °F 30.2 in WSW 17.4 mph 28.2 mph 61% 0 in 215 W/m2
11:32 51.6 °F 38.7 °F 30.2 in WSW 19 mph 28.9 mph 61% 0 in 222 W/m2
11:37 51.6 °F 39 °F 30.2 in SW 24.4 mph 32 mph 62% 0 in 92 W/m2
11:42 51.3 °F 38.7 °F 30.2 in SW 14.5 mph 32 mph 62% 0 in 182 W/m2
11:47 51.8 °F 38.8 °F 30.2 in SW 11.4 mph 32 mph 61% 0 in 219 W/m2
11:52 52 °F 38.5 °F 30.2 in SW 19 mph 33.6 mph 60% 0 in 119 W/m2
11:57 52 °F 38.1 °F 30.2 in WSW 20.6 mph 33.6 mph 59% 0 in 110 W/m2
12:02 52 °F 39 °F 30.2 in SW 10.7 mph 33.6 mph 61% 0 in 200 W/m2
12:04 52.5 °F 39.9 °F 30.2 in SW 13.6 mph 29.8 mph 62% 0 in 132 W/m2
12:09 51.8 °F 38.8 °F 30.2 in SW 15.2 mph 26.6 mph 61% 0 in 151 W/m2
12:14 51.6 °F 38.7 °F 30.2 in WSW 19 mph 28.2 mph 61% 0 in 120 W/m2
12:19 51.6 °F 39.4 °F 30.2 in SW 12.1 mph 28.2 mph 63% 0 in 208 W/m2
12:24 51.8 °F 39.2 °F 30.2 in SW 18.3 mph 27.3 mph 62% 0 in 144 W/m2
12:29 51.3 °F 38.3 °F 30.2 in WSW 14.5 mph 25.1 mph 61% 0 in 158 W/m2
12:34 51.6 °F 39 °F 30.2 in WSW 13.6 mph 25.1 mph 62% 0 in 161 W/m2
12:39 52.2 °F 37.4 °F 30.2 in SW 15.2 mph 29.8 mph 57% 0 in 160 W/m2
12:44 52.2 °F 37.8 °F 30.2 in SSW 15.9 mph 29.8 mph 58% 0 in 136 W/m2
12:49 51.3 °F 37.4 °F 30.2 in SW 14.5 mph 25.1 mph 59% 0 in 106 W/m2
12:54 51.4 °F 37.9 °F 30.2 in SW 10.7 mph 28.2 mph 60% 0 in 159 W/m2
12:59 51.4 °F 38.5 °F 30.2 in SW 15.9 mph 28.2 mph 61% 0 in 175 W/m2
13:04 51.8 °F 37 °F 30.2 in WSW 15.2 mph 27.3 mph 57% 0 in 182 W/m2
13:09 52.2 °F 38.7 °F 30.2 in WSW 13.6 mph 27.3 mph 60% 0 in 198 W/m2
13:14 52.9 °F 39 °F 30.2 in SW 13.6 mph 28.2 mph 59% 0 in 146 W/m2
13:19 52.2 °F 37.4 °F 30.2 in SW 14.5 mph 28.2 mph 57% 0 in 141 W/m2
13:24 52 °F 37.8 °F 30.2 in SW 15.2 mph 26.6 mph 58% 0 in 119 W/m2
13:29 51.6 °F 38.7 °F 30.2 in SW 14.5 mph 26.6 mph 61% 0 in 131 W/m2
13:34 51.6 °F 38.1 °F 30.2 in WSW 17.4 mph 26.6 mph 60% 0 in 151 W/m2
13:39 52.7 °F 38.3 °F 30.2 in WSW 18.3 mph 26.6 mph 58% 0 in 164 W/m2
13:44 52.9 °F 38.5 °F 30.2 in WSW 10.7 mph 26.6 mph 58% 0 in 134 W/m2
13:49 53.1 °F 38.7 °F 30.2 in WSW 10.7 mph 25.9 mph 58% 0 in 129 W/m2
13:54 53.6 °F 36.9 °F 30.2 in West 16.8 mph 22.8 mph 53% 0 in 150 W/m2
13:59 52.7 °F 37 °F 30.2 in SW 15.2 mph 25.1 mph 55% 0 in 155 W/m2
14:04 52.9 °F 37.2 °F 30.2 in SW 14.5 mph 25.1 mph 55% 0 in 171 W/m2
14:07 53.8 °F 37.6 °F 30.2 in SW 14.5 mph 25.1 mph 54% 0 in 212 W/m2
14:12 54.1 °F 36.9 °F 30.3 in SW 15.9 mph 26.6 mph 52% 0 in 153 W/m2
14:17 53.1 °F 36.9 °F 30.2 in SW 20.6 mph 27.3 mph 54% 0 in 202 W/m2
14:22 52.7 °F 37 °F 30.2 in WSW 16.8 mph 27.3 mph 55% 0 in 159 W/m2
14:27 52.9 °F 36.7 °F 30.2 in WSW 13.6 mph 29.8 mph 54% 0 in 250 W/m2
14:32 52.3 °F 35.8 °F 30.2 in SW 16.8 mph 29.8 mph 53% 0 in 244 W/m2
14:37 53.2 °F 38.5 °F 30.2 in SW 13.6 mph 26.6 mph 57% 0 in 267 W/m2
14:42 53.8 °F 37.9 °F 30.2 in SW 15.9 mph 30.4 mph 55% 0 in 262 W/m2
14:47 54.3 °F 38.5 °F 30.3 in SW 15.9 mph 30.4 mph 55% 0 in 156 W/m2
14:52 53.6 °F 38.3 °F 30.2 in WSW 13.6 mph 25.9 mph 56% 0 in 280 W/m2
14:57 53.8 °F 37.6 °F 30.3 in WSW 21.3 mph 30.4 mph 54% 0 in 262 W/m2
15:02 53.6 °F 37.8 °F 30.3 in WSW 15.2 mph 30.4 mph 55% 0 in 222 W/m2
15:07 53.6 °F 36.3 °F 30.3 in SW 16.8 mph 28.9 mph 52% 0 in 197 W/m2
15:12 53.6 °F 36.9 °F 30.3 in SSW 17.4 mph 28.9 mph 53% 0 in 114 W/m2
15:17 52.9 °F 38.1 °F 30.3 in SSW 15.9 mph 25.9 mph 57% 0 in 187 W/m2
15:22 53.4 °F 38.1 °F 30.3 in SW 16.8 mph 25.9 mph 56% 0 in 171 W/m2
15:27 53.6 °F 36.9 °F 30.3 in SW 17.4 mph 24.4 mph 53% 0 in 160 W/m2
15:32 53.6 °F 37.8 °F 30.3 in SW 13.6 mph 23.5 mph 55% 0 in 156 W/m2
15:37 53.1 °F 37.8 °F 30.3 in WSW 15.9 mph 27.3 mph 56% 0 in 78 W/m2
15:42 52.3 °F 37.6 °F 30.3 in SW 12.1 mph 27.3 mph 57% 0 in 58 W/m2
15:47 52.7 °F 37.9 °F 30.3 in SW 12.1 mph 22.8 mph 57% 0 in 64 W/m2
15:52 52.2 °F 38.3 °F 30.3 in SW 13 mph 22.1 mph 59% 0 in 77 W/m2
15:57 52.7 °F 38.8 °F 30.3 in SW 15.9 mph 23.5 mph 59% 0 in 96 W/m2
16:02 52.5 °F 38.1 °F 30.3 in WSW 17.4 mph 25.9 mph 58% 0 in 71 W/m2
16:07 52.2 °F 38.7 °F 30.3 in SW 17.4 mph 29.8 mph 60% 0 in 39 W/m2
16:12 52.2 °F 39 °F 30.3 in SW 15.9 mph 29.8 mph 61% 0 in 50 W/m2
16:17 52.3 °F 40.1 °F 30.3 in SW 11.4 mph 31.1 mph 63% 0 in 46 W/m2
16:22 52.3 °F 38.8 °F 30.3 in SW 16.8 mph 31.1 mph 60% 0 in 41 W/m2
16:27 52.7 °F 40.1 °F 30.3 in SW 13.6 mph 25.9 mph 62% 0 in 38 W/m2
16:32 52.7 °F 38.8 °F 30.3 in WSW 13 mph 26.6 mph 59% 0 in 31 W/m2
16:37 52.5 °F 37.2 °F 30.3 in SW 19.7 mph 36.5 mph 56% 0 in 28 W/m2
16:42 52.2 °F 37.4 °F 30.3 in SSW 15.9 mph 36.5 mph 57% 0 in 17 W/m2
16:47 52 °F 37.8 °F 30.3 in SW 19 mph 28.9 mph 58% 0 in 13 W/m2
16:52 52 °F 39.4 °F 30.3 in SW 15.2 mph 28.9 mph 62% 0 in 7 W/m2
16:58 51.8 °F 39.6 °F 30.3 in SSW 17.4 mph 27.3 mph 63% 0 in 4 W/m2
17:03 51.6 °F 39.7 °F 30.3 in SSW 17.4 mph 26.6 mph 64% 0 in 2 W/m2
17:20 50.5 °F 39.2 °F 30.3 in SW 12.1 mph 26.6 mph 65% 0 in 0 W/m2
17:25 50.5 °F 38.8 °F 30.3 in WSW 12.1 mph 28.2 mph 64% 0 in 0 W/m2
17:30 50.5 °F 39.2 °F 30.3 in SW 8.3 mph 28.2 mph 65% 0 in 0 W/m2
17:35 50.7 °F 39 °F 30.3 in SW 13.6 mph 23.5 mph 64% 0 in 0 W/m2
17:40 51.1 °F 38.8 °F 30.3 in SW 15.2 mph 28.2 mph 63% 0 in 0 W/m2
17:45 51.4 °F 38.8 °F 30.3 in SW 10.7 mph 28.2 mph 62% 0 in 0 W/m2
17:50 51.3 °F 39 °F 30.3 in SW 12.1 mph 27.3 mph 63% 0 in 0 W/m2
17:56 51.3 °F 39 °F 30.3 in SW 10.7 mph 24.4 mph 63% 0 in 0 W/m2
18:01 51.1 °F 39.4 °F 30.3 in SW 13 mph 22.8 mph 64% 0 in 0 W/m2
18:06 50.9 °F 39.6 °F 30.3 in WSW 6.9 mph 20.6 mph 65% 0 in 0 W/m2
18:11 50.7 °F 39 °F 30.3 in WSW 18.3 mph 25.9 mph 64% 0 in 0 W/m2
18:16 50.7 °F 39 °F 30.3 in WSW 15.9 mph 26.6 mph 64% 0 in 0 W/m2
18:21 50.9 °F 39.6 °F 30.3 in SW 11.4 mph 26.6 mph 65% 0 in 0 W/m2
18:26 51.1 °F 38.5 °F 30.3 in SW 13.6 mph 25.9 mph 62% 0 in 0 W/m2
18:31 51.1 °F 38.5 °F 30.3 in SW 13.6 mph 25.9 mph 62% 0 in 0 W/m2
18:36 51.1 °F 38.8 °F 30.3 in SW 15.2 mph 24.4 mph 63% 0 in 0 W/m2
18:41 50.9 °F 39.2 °F 30.3 in SW 17.4 mph 25.1 mph 64% 0 in 0 W/m2
18:46 51.1 °F 37.8 °F 30.3 in SW 16.8 mph 30.4 mph 60% 0 in 0 W/m2
18:51 51.1 °F 38.1 °F 30.3 in SW 15.9 mph 30.4 mph 61% 0 in 0 W/m2
18:56 50.9 °F 38.8 °F 30.3 in SW 13 mph 25.1 mph 63% 0 in 0 W/m2
19:01 50.9 °F 38.5 °F 30.3 in SW 18.3 mph 26.6 mph 62% 0 in 0 W/m2
19:06 51.1 °F 38.8 °F 30.3 in SW 10.7 mph 26.6 mph 63% 0 in 0 W/m2
19:11 50.9 °F 39.2 °F 30.3 in SW 12.1 mph 23.5 mph 64% 0 in 0 W/m2
19:16 51.1 °F 40.1 °F 30.3 in SW 19 mph 26.6 mph 66% 0 in 0 W/m2
19:21 51.1 °F 39.4 °F 30.3 in SW 15.2 mph 26.6 mph 64% 0 in 0 W/m2
19:26 51.1 °F 38.8 °F 30.3 in SW 11.4 mph 26.6 mph 63% 0 in 0 W/m2
19:31 51.1 °F 38.8 °F 30.3 in SW 9.8 mph 26.6 mph 63% 0 in 0 W/m2
19:36 50.9 °F 38.8 °F 30.3 in SW 11.4 mph 26.6 mph 63% 0 in 0 W/m2
19:41 50.9 °F 38.8 °F 30.3 in SW 9.2 mph 23.5 mph 63% 0 in 0 W/m2
19:46 50.7 °F 38.7 °F 30.3 in SW 11.4 mph 19 mph 63% 0 in 0 W/m2
19:51 50.9 °F 37.6 °F 30.3 in SW 10.7 mph 24.4 mph 60% 0 in 0 W/m2
19:56 50.7 °F 38.1 °F 30.3 in SW 8.3 mph 24.4 mph 62% 0 in 0 W/m2
20:01 50.7 °F 38.7 °F 30.3 in SW 10.7 mph 22.1 mph 63% 0 in 0 W/m2
20:06 50.7 °F 37.8 °F 30.3 in SW 15.2 mph 22.8 mph 61% 0 in 0 W/m2
20:11 50.7 °F 38.1 °F 30.3 in SW 12.1 mph 22.8 mph 62% 0 in 0 W/m2
20:16 50.7 °F 38.1 °F 30.3 in SW 12.1 mph 19.7 mph 62% 0 in 0 W/m2
20:21 50.5 °F 38.5 °F 30.3 in WSW 7.6 mph 19.7 mph 63% 0 in 0 W/m2
20:26 50.5 °F 37.9 °F 30.3 in WSW 18.3 mph 22.8 mph 62% 0 in 0 W/m2
20:31 50.7 °F 38.7 °F 30.4 in SW 19.7 mph 27.3 mph 63% 0 in 0 W/m2
20:36 51.1 °F 38.1 °F 30.4 in SW 20.6 mph 27.3 mph 61% 0 in 0 W/m2
20:41 50.9 °F 38.5 °F 30.4 in SW 14.5 mph 27.3 mph 62% 0 in 0 W/m2
20:46 50.7 °F 38.7 °F 30.4 in WSW 9.8 mph 27.3 mph 63% 0 in 0 W/m2
20:56 50.5 °F 38.5 °F 30.4 in WSW 15.9 mph 21.3 mph 63% 0 in 0 W/m2
21:01 50.5 °F 38.5 °F 30.4 in West 12.1 mph 21.3 mph 63% 0 in 0 W/m2
21:06 50.4 °F 39 °F 30.4 in West 9.2 mph 19.7 mph 65% 0 in 0 W/m2
21:11 50.4 °F 38.3 °F 30.4 in WSW 13.6 mph 19 mph 63% 0 in 0 W/m2
21:16 50.5 °F 38.5 °F 30.4 in SW 13.6 mph 19 mph 63% 0 in 0 W/m2
21:21 50.4 °F 37.8 °F 30.4 in WSW 9.8 mph 26.6 mph 62% 0 in 0 W/m2
21:26 50.4 °F 38.3 °F 30.4 in WSW 9.8 mph 26.6 mph 63% 0 in 0 W/m2
21:31 50.4 °F 38.7 °F 30.4 in WSW 14.5 mph 25.1 mph 64% 0 in 0 W/m2
21:36 50.7 °F 37.8 °F 30.4 in SW 14.5 mph 20.6 mph 61% 0 in 0 W/m2
21:41 50.9 °F 38.8 °F 30.4 in SW 7.6 mph 20.6 mph 63% 0 in 0 W/m2
21:46 50.5 °F 38.8 °F 30.4 in SW 9.8 mph 19 mph 64% 0 in 0 W/m2
21:51 50.5 °F 38.5 °F 30.4 in WSW 13.6 mph 18.3 mph 63% 0 in 0 W/m2
21:56 50.5 °F 37.6 °F 30.4 in SW 13.6 mph 23.5 mph 61% 0 in 0 W/m2
22:01 50.4 °F 38.3 °F 30.4 in WSW 4.5 mph 23.5 mph 63% 0 in 0 W/m2
22:06 49.8 °F 38.5 °F 30.4 in WSW 3.8 mph 20.6 mph 65% 0 in 0 W/m2
22:11 48.7 °F 37.6 °F 30.4 in West 2.2 mph 8.3 mph 65% 0 in 0 W/m2
22:16 47.7 °F 37.2 °F 30.4 in NW 4.5 mph 7.6 mph 67% 0 in 0 W/m2
22:21 46.9 °F 36.9 °F 30.4 in WNW 2.2 mph 7.6 mph 68% 0 in 0 W/m2
22:26 46.8 °F 37 °F 30.4 in NW 2.2 mph 6 mph 69% 0 in 0 W/m2
22:31 46.4 °F 36.9 °F 30.4 in NW 3.8 mph 6 mph 69% 0 in 0 W/m2
22:36 45.9 °F 36.7 °F 30.4 in NW 3.1 mph 6 mph 70% 0 in 0 W/m2
22:41 45.7 °F 36.9 °F 30.4 in NW 1.6 mph 5.4 mph 71% 0 in 0 W/m2
22:46 45.7 °F 36.9 °F 30.4 in NW 1.6 mph 5.4 mph 71% 0 in 0 W/m2
22:51 45.9 °F 37 °F 30.4 in WNW 3.8 mph 6.9 mph 71% 0 in 0 W/m2
22:56 46.8 °F 37 °F 30.4 in West 6.9 mph 10.7 mph 69% 0 in 0 W/m2
23:01 47.7 °F 37.2 °F 30.4 in West 3.1 mph 10.7 mph 67% 0 in 0 W/m2
23:06 48 °F 37.2 °F 30.4 in West 3.1 mph 10.7 mph 66% 0 in 0 W/m2
23:11 48.4 °F 36.9 °F 30.4 in West 3.8 mph 8.3 mph 64% 0 in 0 W/m2
23:16 48.4 °F 36.9 °F 30.4 in WNW 3.1 mph 9.8 mph 64% 0 in 0 W/m2
23:21 47.3 °F 36.1 °F 30.4 in WNW 4.5 mph 9.8 mph 65% 0 in 0 W/m2
23:26 45.3 °F 35.4 °F 30.4 in NNW 2.2 mph 6 mph 68% 0 in 0 W/m2
23:31 44.4 °F 36 °F 30.4 in NNW 3.1 mph 6 mph 72% 0 in 0 W/m2
23:36 44.1 °F 36 °F 30.4 in NNW 2.2 mph 4.5 mph 73% 0 in 0 W/m2
23:41 43.7 °F 36 °F 30.4 in NW 2.2 mph 4.5 mph 74% 0 in 0 W/m2
23:47 43.5 °F 35.8 °F 30.4 in NW 3.8 mph 5.4 mph 74% 0 in 0 W/m2
23:52 43.3 °F 36 °F 30.4 in NW 4.5 mph 6 mph 75% 0 in 0 W/m2
23:58 43 °F 35.6 °F 30.4 in NNW 3.8 mph 6 mph 75% 0 in 0 W/m2
Northern Hawkes Bay. New Zealand Historic Data
Compliments of Weather Underground - 2 mb